Time;durP1;ratioP1;P1;durP2;ratioP2;P2;SDS_P1;SDS_P2;PMS_P1;PMS_P2;Temp;Humidity;BMP_temperature;BMP_pressure;BME280_temperature;BME280_humidity;BME280_pressure;Samples;Min_cycle;Max_cycle;Signal;HPM_P1;HPM_P2
2023/02/22 00:00:26;;;;;;;8.75;5.43;;;;;;;;;;5049899;28;20254;-51
2023/02/22 00:02:58;;;;;;;7.53;5.40;;;;;;;;;;5047526;28;20179;-52
2023/02/22 00:05:25;;;;;;;7.40;5.28;;;;;;;;;;5042127;28;20256;-51
2023/02/22 00:07:51;;;;;;;7.43;5.55;;;;;;;;;;5044148;28;20187;-52
2023/02/22 00:10:20;;;;;;;7.95;5.43;;;;;;;;;;5054225;28;20228;-51
2023/02/22 00:12:48;;;;;;;6.72;4.97;;;;;;;;;;5066577;28;20625;-51
2023/02/22 00:15:15;;;;;;;8.18;5.70;;;;;;;;;;5044002;28;20187;-52
2023/02/22 00:17:41;;;;;;;7.57;5.32;;;;;;;;;;5048878;28;20211;-52
2023/02/22 00:20:12;;;;;;;6.85;5.05;;;;;;;;;;5046852;28;20194;-52
2023/02/22 00:22:39;;;;;;;6.68;4.95;;;;;;;;;;5049281;28;20616;-53
2023/02/22 00:25:05;;;;;;;6.07;4.53;;;;;;;;;;5052765;28;20183;-52
2023/02/22 00:27:31;;;;;;;5.75;4.85;;;;;;;;;;5048131;28;20270;-52
2023/02/22 00:29:57;;;;;;;5.47;4.70;;;;;;;;;;5047448;28;20697;-51
2023/02/22 00:32:23;;;;;;;8.07;5.40;;;;;;;;;;5051472;28;20507;-52
2023/02/22 00:34:53;;;;;;;6.10;4.55;;;;;;;;;;5053341;28;20211;-52
2023/02/22 00:37:19;;;;;;;7.22;5.20;;;;;;;;;;5049103;28;20263;-52
2023/02/22 00:39:47;;;;;;;6.18;4.90;;;;;;;;;;5070600;28;20181;-52
2023/02/22 00:42:13;;;;;;;6.22;4.70;;;;;;;;;;5062429;28;20446;-51
2023/02/22 00:44:38;;;;;;;5.88;4.63;;;;;;;;;;5061752;28;20549;-51
2023/02/22 00:47:04;;;;;;;5.88;4.30;;;;;;;;;;5062868;28;20594;-51
2023/02/22 00:49:30;;;;;;;5.05;4.03;;;;;;;;;;5058486;28;20232;-52
2023/02/22 00:51:56;;;;;;;5.63;4.68;;;;;;;;;;5063169;28;21083;-51
2023/02/22 00:54:22;;;;;;;7.32;4.93;;;;;;;;;;5046868;28;20192;-52
2023/02/22 00:56:49;;;;;;;5.50;4.30;;;;;;;;;;5051041;28;20175;-51
2023/02/22 00:59:15;;;;;;;6.75;4.45;;;;;;;;;;5046361;28;20179;-51
2023/02/22 01:01:41;;;;;;;6.40;4.80;;;;;;;;;;5043736;28;20459;-51
2023/02/22 01:04:08;;;;;;;5.18;4.45;;;;;;;;;;5044697;28;20182;-52
2023/02/22 01:06:34;;;;;;;5.93;4.45;;;;;;;;;;5042113;28;20251;-51
2023/02/22 01:09:01;;;;;;;5.10;4.20;;;;;;;;;;5047274;28;20286;-52
2023/02/22 01:11:27;;;;;;;6.05;4.30;;;;;;;;;;5043269;28;20171;-52
2023/02/22 01:13:54;;;;;;;5.32;4.35;;;;;;;;;;5035916;28;20222;-52
2023/02/22 01:16:20;;;;;;;5.95;4.45;;;;;;;;;;5035946;28;20563;-51
2023/02/22 01:18:46;;;;;;;6.97;4.75;;;;;;;;;;5037431;28;20509;-51
2023/02/22 01:21:12;;;;;;;5.80;4.15;;;;;;;;;;5053831;28;20183;-52
2023/02/22 01:23:38;;;;;;;5.53;4.13;;;;;;;;;;5052714;28;20187;-52
2023/02/22 01:26:04;;;;;;;4.70;3.70;;;;;;;;;;5054408;28;20236;-52
2023/02/22 01:28:31;;;;;;;5.72;4.30;;;;;;;;;;5049883;28;20266;-53
2023/02/22 01:30:57;;;;;;;4.57;3.85;;;;;;;;;;5050974;28;20187;-52
2023/02/22 01:33:23;;;;;;;4.60;3.92;;;;;;;;;;5051647;28;20211;-52
2023/02/22 01:35:49;;;;;;;5.30;4.05;;;;;;;;;;5050082;28;20294;-51
2023/02/22 01:38:17;;;;;;;5.32;3.92;;;;;;;;;;5040218;28;20235;-52
2023/02/22 01:40:43;;;;;;;4.80;4.05;;;;;;;;;;5046457;28;20565;-52
2023/02/22 01:43:23;;;;;;;5.97;4.07;;;;;;;;;;5066545;28;20182;-51
2023/02/22 01:45:49;;;;;;;4.47;3.88;;;;;;;;;;5065451;28;20210;-51
2023/02/22 01:48:22;;;;;;;5.07;3.92;;;;;;;;;;5045692;28;20211;-52
2023/02/22 01:50:56;;;;;;;4.80;3.92;;;;;;;;;;5049831;28;20189;-51
2023/02/22 01:53:35;;;;;;;4.78;3.80;;;;;;;;;;5049889;28;20210;-51
2023/02/22 01:56:01;;;;;;;5.28;3.95;;;;;;;;;;5045453;28;20259;-52
2023/02/22 01:58:28;;;;;;;4.80;3.63;;;;;;;;;;5045986;28;20184;-52
2023/02/22 02:00:54;;;;;;;4.72;3.75;;;;;;;;;;5051158;28;20254;-52
2023/02/22 02:03:22;;;;;;;4.53;3.63;;;;;;;;;;5051464;28;20198;-52
2023/02/22 02:05:49;;;;;;;5.10;3.45;;;;;;;;;;5050456;28;20179;-52
2023/02/22 02:08:25;;;;;;;4.53;4.00;;;;;;;;;;5052530;28;20198;-52
2023/02/22 02:10:53;;;;;;;3.67;3.33;;;;;;;;;;5047270;28;20243;-52
2023/02/22 02:13:19;;;;;;;4.55;3.60;;;;;;;;;;5052348;28;20206;-52
2023/02/22 02:15:45;;;;;;;5.07;3.78;;;;;;;;;;5053532;28;20179;-52
2023/02/22 02:18:13;;;;;;;4.40;3.60;;;;;;;;;;5049532;28;20598;-52
2023/02/22 02:20:47;;;;;;;5.35;3.72;;;;;;;;;;5045650;28;20189;-52
2023/02/22 02:23:31;;;;;;;4.28;3.42;;;;;;;;;;5061323;28;20187;-52
2023/02/22 02:26:07;;;;;;;3.65;3.20;;;;;;;;;;5054883;28;20212;-52
2023/02/22 02:28:45;;;;;;;4.93;3.95;;;;;;;;;;5037909;28;20186;-52
2023/02/22 02:31:28;;;;;;;4.13;3.20;;;;;;;;;;5067053;28;20197;-52
2023/02/22 02:34:23;;;;;;;3.85;3.38;;;;;;;;;;5066904;28;20198;-51
2023/02/22 02:36:56;;;;;;;4.25;2.83;;;;;;;;;;5043106;28;20815;-52
2023/02/22 02:39:37;;;;;;;5.03;3.30;;;;;;;;;;5061622;28;20183;-52
2023/02/22 02:42:05;;;;;;;3.60;3.10;;;;;;;;;;5065808;28;20179;-52
2023/02/22 02:44:36;;;;;;;3.20;2.88;;;;;;;;;;5069755;28;20845;-52
2023/02/22 02:47:06;;;;;;;3.50;3.10;;;;;;;;;;5062646;28;20206;-52
2023/02/22 02:49:51;;;;;;;3.35;3.05;;;;;;;;;;5055197;28;20578;-52
2023/02/22 02:52:18;;;;;;;3.30;3.00;;;;;;;;;;5056805;28;20206;-52
2023/02/22 02:54:45;;;;;;;3.63;3.20;;;;;;;;;;5072331;28;20565;-52
2023/02/22 02:57:11;;;;;;;3.83;2.78;;;;;;;;;;5049956;28;20558;-52
2023/02/22 02:59:37;;;;;;;4.18;2.97;;;;;;;;;;5054613;28;20175;-52
2023/02/22 03:02:22;;;;;;;3.38;2.92;;;;;;;;;;5048549;28;20565;-52
2023/02/22 03:05:08;;;;;;;3.20;2.67;;;;;;;;;;5051316;28;20182;-52
2023/02/22 03:07:46;;;;;;;3.92;2.92;;;;;;;;;;5049286;28;20484;-52
2023/02/22 03:10:40;;;;;;;3.33;3.03;;;;;;;;;;5047884;28;20209;-52
2023/02/22 03:13:21;;;;;;;2.90;2.60;;;;;;;;;;5061957;28;20273;-52
2023/02/22 03:16:01;;;;;;;3.10;2.75;;;;;;;;;;5045870;28;20190;-52
2023/02/22 03:18:28;;;;;;;3.55;2.97;;;;;;;;;;5065177;28;20178;-52
2023/02/22 03:20:54;;;;;;;3.60;2.90;;;;;;;;;;5056676;28;20563;-52
2023/02/22 03:23:24;;;;;;;3.90;2.83;;;;;;;;;;5062258;28;20237;-51
2023/02/22 03:26:11;;;;;;;3.42;2.65;;;;;;;;;;5065759;28;20174;-51
2023/02/22 03:28:39;;;;;;;3.97;3.10;;;;;;;;;;5048982;28;20729;-52
2023/02/22 03:31:09;;;;;;;3.35;2.90;;;;;;;;;;5055549;28;20277;-51
2023/02/22 03:33:35;;;;;;;3.45;2.60;;;;;;;;;;5051367;28;20203;-52
2023/02/22 03:36:12;;;;;;;2.92;2.38;;;;;;;;;;5051259;28;20225;-51
2023/02/22 03:38:39;;;;;;;3.13;2.80;;;;;;;;;;5041962;28;20262;-51
2023/02/22 03:41:07;;;;;;;2.80;2.60;;;;;;;;;;5057351;28;20616;-51
2023/02/22 03:43:38;;;;;;;3.17;2.78;;;;;;;;;;5056002;28;20232;-52
2023/02/22 03:46:05;;;;;;;2.55;2.35;;;;;;;;;;5060210;28;20183;-52
2023/02/22 03:48:50;;;;;;;3.25;2.80;;;;;;;;;;5049433;28;20189;-52
2023/02/22 03:51:16;;;;;;;2.88;2.25;;;;;;;;;;5063567;28;20186;-51
2023/02/22 03:53:43;;;;;;;2.40;2.20;;;;;;;;;;5052745;28;20249;-52
2023/02/22 03:56:12;;;;;;;2.78;2.58;;;;;;;;;;5072860;28;20189;-52
2023/02/22 03:58:42;;;;;;;2.83;2.58;;;;;;;;;;5056931;28;20174;-52
2023/02/22 04:01:08;;;;;;;3.63;2.42;;;;;;;;;;5046081;28;20172;-52
2023/02/22 04:03:34;;;;;;;2.78;2.55;;;;;;;;;;5044998;28;20194;-51
2023/02/22 04:06:00;;;;;;;2.92;2.63;;;;;;;;;;5048381;28;20237;-51
2023/02/22 04:08:26;;;;;;;4.30;2.80;;;;;;;;;;5050915;28;20192;-51
2023/02/22 04:10:52;;;;;;;3.13;2.83;;;;;;;;;;5060632;28;20424;-52
2023/02/22 04:13:18;;;;;;;2.80;2.55;;;;;;;;;;5064242;28;20209;-52
2023/02/22 04:15:44;;;;;;;2.53;2.33;;;;;;;;;;5062456;28;20179;-51
2023/02/22 04:18:10;;;;;;;2.75;2.30;;;;;;;;;;5052995;28;20186;-52
2023/02/22 04:20:36;;;;;;;2.83;2.30;;;;;;;;;;5062176;28;20239;-52
2023/02/22 04:23:02;;;;;;;2.53;2.33;;;;;;;;;;5066867;28;20239;-51
2023/02/22 04:25:28;;;;;;;3.53;2.72;;;;;;;;;;5066484;28;20578;-52
2023/02/22 04:27:54;;;;;;;3.53;2.70;;;;;;;;;;5069057;28;20182;-52
2023/02/22 04:30:20;;;;;;;2.72;2.33;;;;;;;;;;5070762;28;20190;-52
2023/02/22 04:32:46;;;;;;;3.40;2.53;;;;;;;;;;5069922;28;20916;-51
2023/02/22 04:35:11;;;;;;;2.72;2.53;;;;;;;;;;5070758;28;20212;-52
2023/02/22 04:37:37;;;;;;;2.55;2.25;;;;;;;;;;5060111;28;20378;-52
2023/02/22 04:40:07;;;;;;;2.85;2.28;;;;;;;;;;5057824;28;20189;-52
2023/02/22 04:42:34;;;;;;;4.03;2.65;;;;;;;;;;5057524;28;20189;-52
2023/02/22 04:45:00;;;;;;;2.65;2.33;;;;;;;;;;5057991;28;20191;-51
2023/02/22 04:47:25;;;;;;;3.78;2.40;;;;;;;;;;5057813;28;20341;-52
2023/02/22 04:49:51;;;;;;;3.08;2.70;;;;;;;;;;5053013;28;20191;-52
2023/02/22 04:52:17;;;;;;;3.35;2.55;;;;;;;;;;5044265;28;20215;-52
2023/02/22 04:54:43;;;;;;;3.13;2.42;;;;;;;;;;5048044;28;20477;-52
2023/02/22 04:57:09;;;;;;;4.18;2.60;;;;;;;;;;5054249;28;20187;-52
2023/02/22 04:59:35;;;;;;;3.00;2.33;;;;;;;;;;5046199;28;20555;-52
2023/02/22 05:02:01;;;;;;;8.65;2.75;;;;;;;;;;5041547;28;20188;-50
2023/02/22 05:04:27;;;;;;;11.35;3.83;;;;;;;;;;5057579;28;20514;-45
2023/02/22 05:06:53;;;;;;;10.40;4.35;;;;;;;;;;5054167;28;20167;-45
2023/02/22 05:09:19;;;;;;;9.50;3.70;;;;;;;;;;5046369;28;20601;-45
2023/02/22 05:11:45;;;;;;;9.68;4.28;;;;;;;;;;5051707;28;20188;-45
2023/02/22 05:14:11;;;;;;;9.00;3.90;;;;;;;;;;5047299;28;20218;-45
2023/02/22 05:16:37;;;;;;;8.85;3.72;;;;;;;;;;5049658;28;20507;-45
2023/02/22 05:19:03;;;;;;;9.70;3.83;;;;;;;;;;5064990;28;20183;-45
2023/02/22 05:21:29;;;;;;;7.68;3.67;;;;;;;;;;5062644;28;20181;-45
2023/02/22 05:23:56;;;;;;;9.45;3.63;;;;;;;;;;5063818;28;20281;-44
2023/02/22 05:26:22;;;;;;;8.00;2.85;;;;;;;;;;5069716;28;20430;-45
2023/02/22 05:28:48;;;;;;;9.30;3.25;;;;;;;;;;5049491;28;20244;-45
2023/02/22 05:31:14;;;;;;;9.77;3.53;;;;;;;;;;5058057;28;20193;-44
2023/02/22 05:33:39;;;;;;;6.35;2.92;;;;;;;;;;5059922;28;20331;-45
2023/02/22 05:36:07;;;;;;;6.05;3.00;;;;;;;;;;5074815;28;20205;-45
2023/02/22 05:38:33;;;;;;;7.97;3.30;;;;;;;;;;5053689;28;20179;-45
2023/02/22 05:40:59;;;;;;;5.30;3.28;;;;;;;;;;5068707;28;20178;-45
2023/02/22 05:43:25;;;;;;;9.77;3.75;;;;;;;;;;5054891;28;20198;-45
2023/02/22 05:45:51;;;;;;;8.63;3.42;;;;;;;;;;5071273;28;20174;-45
2023/02/22 05:48:17;;;;;;;4.55;3.20;;;;;;;;;;5052398;28;20190;-45
2023/02/22 05:50:43;;;;;;;6.20;3.13;;;;;;;;;;5064294;28;20551;-45
2023/02/22 05:53:09;;;;;;;7.32;3.13;;;;;;;;;;5056646;28;20210;-45
2023/02/22 05:55:35;;;;;;;6.65;3.38;;;;;;;;;;5056720;28;20227;-45
2023/02/22 05:58:04;;;;;;;9.23;3.05;;;;;;;;;;5057092;28;20190;-45
2023/02/22 06:00:30;;;;;;;6.68;3.05;;;;;;;;;;5045286;28;20262;-45
2023/02/22 06:02:57;;;;;;;7.45;3.03;;;;;;;;;;5046018;28;20270;-45
2023/02/22 06:05:23;;;;;;;6.53;3.60;;;;;;;;;;5054600;28;20186;-45
2023/02/22 06:07:49;;;;;;;6.15;3.10;;;;;;;;;;5067689;28;20199;-45
2023/02/22 06:10:15;;;;;;;5.93;2.85;;;;;;;;;;5059802;28;20205;-45
2023/02/22 06:12:43;;;;;;;6.03;3.30;;;;;;;;;;5050400;28;20282;-44
2023/02/22 06:15:09;;;;;;;5.65;2.92;;;;;;;;;;5054162;28;20571;-45
2023/02/22 06:17:35;;;;;;;7.70;3.10;;;;;;;;;;5060003;28;20182;-45
2023/02/22 06:20:01;;;;;;;5.80;3.30;;;;;;;;;;5053633;28;20495;-45
2023/02/22 06:22:27;;;;;;;4.22;2.90;;;;;;;;;;5055194;28;20316;-45
2023/02/22 06:24:53;;;;;;;5.25;2.75;;;;;;;;;;5072830;28;20182;-45
2023/02/22 06:27:19;;;;;;;5.05;3.00;;;;;;;;;;5064387;28;20435;-45
2023/02/22 06:29:46;;;;;;;5.13;2.97;;;;;;;;;;5052594;28;20197;-45
2023/02/22 06:32:12;;;;;;;6.18;3.20;;;;;;;;;;5052734;28;20256;-45
2023/02/22 06:34:39;;;;;;;6.15;2.95;;;;;;;;;;5051401;28;20447;-45
2023/02/22 06:37:05;;;;;;;3.97;2.70;;;;;;;;;;5065012;28;20546;-45
2023/02/22 06:39:31;;;;;;;3.58;2.67;;;;;;;;;;5047290;28;20194;-45
2023/02/22 06:41:58;;;;;;;4.72;2.60;;;;;;;;;;5057486;28;20511;-45
2023/02/22 06:44:24;;;;;;;5.13;2.58;;;;;;;;;;5048291;28;20179;-45
2023/02/22 06:46:50;;;;;;;5.85;2.70;;;;;;;;;;5069453;28;20593;-44
2023/02/22 06:49:17;;;;;;;4.65;2.53;;;;;;;;;;5048289;28;20183;-45
2023/02/22 06:51:43;;;;;;;5.00;2.88;;;;;;;;;;5044147;28;20179;-45
2023/02/22 06:54:09;;;;;;;3.80;2.40;;;;;;;;;;5053120;28;20183;-44
2023/02/22 06:56:35;;;;;;;3.25;2.30;;;;;;;;;;5053626;28;20201;-45
2023/02/22 06:59:00;;;;;;;3.58;2.30;;;;;;;;;;5051026;28;20188;-45
2023/02/22 07:01:27;;;;;;;4.38;2.55;;;;;;;;;;5051794;28;20195;-45
2023/02/22 07:03:52;;;;;;;5.82;3.00;;;;;;;;;;5044413;28;20180;-45
2023/02/22 07:06:18;;;;;;;3.15;2.38;;;;;;;;;;5051541;28;20605;-45
2023/02/22 07:08:44;;;;;;;4.97;2.95;;;;;;;;;;5048972;28;20199;-45
2023/02/22 07:11:10;;;;;;;3.90;2.30;;;;;;;;;;5059725;28;20182;-45
2023/02/22 07:13:36;;;;;;;2.97;2.47;;;;;;;;;;5053902;28;20349;-45
2023/02/22 07:16:02;;;;;;;4.88;2.47;;;;;;;;;;5048422;28;20194;-44
2023/02/22 07:18:29;;;;;;;4.00;2.60;;;;;;;;;;5050827;28;20182;-44
2023/02/22 07:20:54;;;;;;;4.68;2.40;;;;;;;;;;5049927;28;20203;-45
2023/02/22 07:23:21;;;;;;;3.78;2.42;;;;;;;;;;5049513;28;20176;-45
2023/02/22 07:25:47;;;;;;;5.10;2.60;;;;;;;;;;5061270;28;20298;-45
2023/02/22 07:28:13;;;;;;;5.97;2.92;;;;;;;;;;5046012;28;20278;-45
2023/02/22 07:30:39;;;;;;;4.20;2.60;;;;;;;;;;5049019;28;20183;-45
2023/02/22 07:33:07;;;;;;;3.22;2.20;;;;;;;;;;5054420;28;20240;-44
2023/02/22 07:35:53;;;;;;;3.55;2.45;;;;;;;;;;5054863;28;20175;-45
2023/02/22 07:38:20;;;;;;;4.68;2.60;;;;;;;;;;5052874;28;20233;-45
2023/02/22 07:40:46;;;;;;;2.40;2.10;;;;;;;;;;5058116;28;20175;-44
2023/02/22 07:43:19;;;;;;;2.83;2.28;;;;;;;;;;5047499;28;20708;-45
2023/02/22 07:45:45;;;;;;;2.90;2.13;;;;;;;;;;5052768;28;20262;-46
2023/02/22 07:48:11;;;;;;;3.55;2.30;;;;;;;;;;5054738;28;20207;-45
2023/02/22 07:50:37;;;;;;;3.13;2.30;;;;;;;;;;5055576;28;20179;-45
2023/02/22 07:53:04;;;;;;;3.50;2.22;;;;;;;;;;5051087;28;20215;-45
2023/02/22 07:55:31;;;;;;;4.30;2.50;;;;;;;;;;5049069;28;20279;-44
2023/02/22 07:57:58;;;;;;;3.55;2.20;;;;;;;;;;5056224;28;20194;-45
2023/02/22 08:00:26;;;;;;;5.20;2.53;;;;;;;;;;5056319;28;20439;-44
2023/02/22 08:02:52;;;;;;;2.85;2.35;;;;;;;;;;5054790;28;20175;-45
2023/02/22 08:05:19;;;;;;;2.90;2.20;;;;;;;;;;5043977;28;20210;-45
2023/02/22 08:07:45;;;;;;;2.97;2.35;;;;;;;;;;5058186;28;20604;-44
2023/02/22 08:10:11;;;;;;;4.55;2.47;;;;;;;;;;5060263;28;20334;-45
2023/02/22 08:12:37;;;;;;;3.88;2.50;;;;;;;;;;5064797;28;20210;-45
2023/02/22 08:15:04;;;;;;;2.22;1.95;;;;;;;;;;5067129;28;20179;-45
2023/02/22 08:17:30;;;;;;;3.80;2.30;;;;;;;;;;5065387;28;20200;-45
2023/02/22 08:19:56;;;;;;;3.15;2.00;;;;;;;;;;5051276;28;20227;-45
2023/02/22 08:22:23;;;;;;;2.92;2.15;;;;;;;;;;5061167;28;20193;-44
2023/02/22 08:24:53;;;;;;;2.80;2.13;;;;;;;;;;5063046;28;20530;-45
2023/02/22 08:27:22;;;;;;;3.17;2.40;;;;;;;;;;5067270;28;20191;-45
2023/02/22 08:29:47;;;;;;;4.38;2.40;;;;;;;;;;5060120;28;20247;-44
2023/02/22 08:32:15;;;;;;;2.78;1.90;;;;;;;;;;5068420;28;20207;-45
2023/02/22 08:34:41;;;;;;;4.20;2.20;;;;;;;;;;5062237;28;20200;-45
2023/02/22 08:37:07;;;;;;;2.22;1.85;;;;;;;;;;5062478;28;20474;-45
2023/02/22 08:39:33;;;;;;;2.08;1.83;;;;;;;;;;5051978;28;20187;-44
2023/02/22 08:41:59;;;;;;;2.78;1.95;;;;;;;;;;5060194;28;20179;-44
2023/02/22 08:44:25;;;;;;;3.97;2.40;;;;;;;;;;5050864;28;20226;-44
2023/02/22 08:46:51;;;;;;;3.22;2.10;;;;;;;;;;5071495;28;20212;-45
2023/02/22 08:49:17;;;;;;;2.50;1.92;;;;;;;;;;5048878;28;20191;-45
2023/02/22 08:51:43;;;;;;;2.30;1.70;;;;;;;;;;5046984;28;20176;-45
2023/02/22 08:54:09;;;;;;;2.70;2.00;;;;;;;;;;5052599;28;20218;-45
2023/02/22 08:56:35;;;;;;;2.67;1.77;;;;;;;;;;5054042;28;20175;-45
2023/02/22 08:59:01;;;;;;;2.70;1.83;;;;;;;;;;5053103;28;20578;-45
2023/02/22 09:01:28;;;;;;;3.13;2.22;;;;;;;;;;5054507;28;20183;-45
2023/02/22 09:03:55;;;;;;;1.92;1.80;;;;;;;;;;5052419;28;20645;-45
2023/02/22 09:06:21;;;;;;;2.05;1.88;;;;;;;;;;5055659;28;20263;-45
2023/02/22 09:08:46;;;;;;;3.00;1.80;;;;;;;;;;5058862;28;20214;-45
2023/02/22 09:11:12;;;;;;;2.88;2.13;;;;;;;;;;5055655;28;20186;-45
2023/02/22 09:13:38;;;;;;;2.55;2.00;;;;;;;;;;5045592;28;20523;-44
2023/02/22 09:16:04;;;;;;;2.60;2.22;;;;;;;;;;5049226;28;20176;-45
2023/02/22 09:18:31;;;;;;;2.33;1.90;;;;;;;;;;5052039;28;20280;-45
2023/02/22 09:20:57;;;;;;;2.92;1.90;;;;;;;;;;5056874;28;20195;-44
2023/02/22 09:23:23;;;;;;;3.42;1.95;;;;;;;;;;5053815;28;20183;-45
2023/02/22 09:25:49;;;;;;;1.95;1.80;;;;;;;;;;5054939;28;20988;-45
2023/02/22 09:28:15;;;;;;;2.40;1.80;;;;;;;;;;5048876;28;20195;-45
2023/02/22 09:30:41;;;;;;;2.15;1.80;;;;;;;;;;5047451;28;20187;-45
2023/02/22 09:33:17;;;;;;;1.88;1.50;;;;;;;;;;5053648;28;20214;-45
2023/02/22 09:35:45;;;;;;;3.63;1.90;;;;;;;;;;5055236;28;20217;-44
2023/02/22 09:38:11;;;;;;;1.50;1.38;;;;;;;;;;5052646;28;20194;-45
2023/02/22 09:40:45;;;;;;;2.25;1.88;;;;;;;;;;5054288;28;20454;-45
2023/02/22 09:43:32;;;;;;;2.15;1.70;;;;;;;;;;5045616;28;20191;-45
2023/02/22 09:46:10;;;;;;;2.10;1.90;;;;;;;;;;5043431;28;20245;-45
2023/02/22 09:48:40;;;;;;;2.58;1.75;;;;;;;;;;5053963;28;20186;-45
2023/02/22 09:51:11;;;;;;;3.88;1.88;;;;;;;;;;5052964;28;20191;-45
2023/02/22 09:53:40;;;;;;;2.63;1.52;;;;;;;;;;5050546;28;20214;-45
2023/02/22 09:56:09;;;;;;;2.35;1.70;;;;;;;;;;5046637;28;20791;-45
2023/02/22 09:58:56;;;;;;;2.65;1.88;;;;;;;;;;5049498;28;20258;-45
2023/02/22 10:01:38;;;;;;;1.50;1.33;;;;;;;;;;5054944;28;20262;-44
2023/02/22 10:04:20;;;;;;;1.70;1.60;;;;;;;;;;5043785;28;20257;-45
2023/02/22 10:07:10;;;;;;;1.85;1.67;;;;;;;;;;5049380;28;20179;-45
2023/02/22 10:09:41;;;;;;;1.67;1.58;;;;;;;;;;5049046;28;20230;-45
2023/02/22 10:12:11;;;;;;;2.25;1.65;;;;;;;;;;5053594;28;20265;-45
2023/02/22 10:14:48;;;;;;;2.15;1.77;;;;;;;;;;5042242;28;20183;-45
2023/02/22 10:17:32;;;;;;;1.52;1.40;;;;;;;;;;5048064;28;20182;-45
2023/02/22 10:20:13;;;;;;;2.00;1.60;;;;;;;;;;5052402;28;20190;-45
2023/02/22 10:22:57;;;;;;;2.70;1.73;;;;;;;;;;5053831;28;20237;-45
2023/02/22 10:25:25;;;;;;;2.33;1.50;;;;;;;;;;5042709;28;20172;-45
2023/02/22 10:27:51;;;;;;;2.90;1.92;;;;;;;;;;5051839;28;20298;-45
2023/02/22 10:30:20;;;;;;;1.73;1.63;;;;;;;;;;5045721;28;20257;-45
2023/02/22 10:32:48;;;;;;;1.65;1.55;;;;;;;;;;5052719;28;20225;-45
2023/02/22 10:35:22;;;;;;;1.50;1.40;;;;;;;;;;5053459;28;20621;-45
2023/02/22 10:37:52;;;;;;;1.60;1.50;;;;;;;;;;5050528;28;20266;-45
2023/02/22 10:40:21;;;;;;;2.00;1.80;;;;;;;;;;5041299;28;20175;-45
2023/02/22 10:42:48;;;;;;;1.58;1.48;;;;;;;;;;5056145;28;20190;-45
2023/02/22 10:45:40;;;;;;;1.77;1.35;;;;;;;;;;5050478;28;20187;-44
2023/02/22 10:48:11;;;;;;;1.55;1.45;;;;;;;;;;5047975;28;20204;-45
2023/02/22 10:50:39;;;;;;;1.27;1.17;;;;;;;;;;5053384;28;20187;-45
2023/02/22 10:53:05;;;;;;;2.13;1.67;;;;;;;;;;5060289;28;20186;-45
2023/02/22 10:55:31;;;;;;;2.97;1.40;;;;;;;;;;5068590;28;20490;-45
2023/02/22 10:58:03;;;;;;;2.08;1.65;;;;;;;;;;5065991;28;20537;-45
2023/02/22 11:00:31;;;;;;;1.70;1.60;;;;;;;;;;5066651;28;20229;-45
2023/02/22 11:02:58;;;;;;;1.30;1.20;;;;;;;;;;5063361;28;20333;-45
2023/02/22 11:05:37;;;;;;;2.30;1.60;;;;;;;;;;5070316;28;20268;-45
2023/02/22 11:08:22;;;;;;;2.05;1.60;;;;;;;;;;5058224;28;20211;-45
2023/02/22 11:10:49;;;;;;;1.70;1.25;;;;;;;;;;5075318;28;20192;-45
2023/02/22 11:13:18;;;;;;;2.15;1.40;;;;;;;;;;5061253;28;20204;-45
2023/02/22 11:15:44;;;;;;;1.60;1.50;;;;;;;;;;5051404;28;20217;-45
2023/02/22 11:18:36;;;;;;;1.50;1.40;;;;;;;;;;5052462;28;20215;-45
2023/02/22 11:21:06;;;;;;;1.35;1.15;;;;;;;;;;5046233;28;20195;-45
2023/02/22 11:23:34;;;;;;;2.10;1.40;;;;;;;;;;5053170;28;20581;-45
2023/02/22 11:26:01;;;;;;;1.48;1.38;;;;;;;;;;5051681;28;20186;-45
2023/02/22 11:28:32;;;;;;;1.67;1.45;;;;;;;;;;5047116;28;20531;-45
2023/02/22 11:31:18;;;;;;;1.52;1.30;;;;;;;;;;5048910;28;20179;-45
2023/02/22 11:33:57;;;;;;;1.33;1.23;;;;;;;;;;5049414;28;20456;-43
2023/02/22 11:36:39;;;;;;;1.48;1.20;;;;;;;;;;5050891;28;20214;-43
2023/02/22 11:39:10;;;;;;;1.17;1.13;;;;;;;;;;5052667;28;20178;-43
2023/02/22 11:41:36;;;;;;;1.35;1.25;;;;;;;;;;5077228;28;20204;-43
2023/02/22 11:44:12;;;;;;;1.80;1.45;;;;;;;;;;5062934;28;20190;-43
2023/02/22 11:46:39;;;;;;;1.88;1.50;;;;;;;;;;5060013;28;20273;-42
2023/02/22 11:49:10;;;;;;;1.38;1.27;;;;;;;;;;5060916;28;20261;-43
2023/02/22 11:51:42;;;;;;;1.30;1.20;;;;;;;;;;5073663;28;20186;-43
2023/02/22 11:54:24;;;;;;;1.85;1.17;;;;;;;;;;5065910;28;20236;-43
2023/02/22 11:56:51;;;;;;;1.10;1.08;;;;;;;;;;5064846;28;20175;-43
2023/02/22 11:59:30;;;;;;;1.20;1.10;;;;;;;;;;5051216;28;20257;-43
2023/02/22 12:01:59;;;;;;;1.35;1.25;;;;;;;;;;5069019;28;20185;-43
2023/02/22 12:04:40;;;;;;;1.20;1.10;;;;;;;;;;5057588;28;20274;-43
2023/02/22 12:07:07;;;;;;;1.50;1.40;;;;;;;;;;5048932;28;20175;-43
2023/02/22 12:09:43;;;;;;;1.30;1.20;;;;;;;;;;5058370;28;20198;-43
2023/02/22 12:12:30;;;;;;;1.35;1.23;;;;;;;;;;5047022;28;20214;-43
2023/02/22 12:15:23;;;;;;;1.65;1.38;;;;;;;;;;5052033;28;20227;-43
2023/02/22 12:17:55;;;;;;;1.92;1.50;;;;;;;;;;5063197;28;20197;-43
2023/02/22 12:20:23;;;;;;;1.73;1.20;;;;;;;;;;5068694;28;20190;-43
2023/02/22 12:23:01;;;;;;;1.50;1.40;;;;;;;;;;5064638;28;20447;-43
2023/02/22 12:25:30;;;;;;;1.30;1.20;;;;;;;;;;5071539;28;20189;-43
2023/02/22 12:28:15;;;;;;;1.80;1.55;;;;;;;;;;5048066;28;20665;-43
2023/02/22 12:30:44;;;;;;;1.38;1.27;;;;;;;;;;5070731;28;20224;-42
2023/02/22 12:33:13;;;;;;;1.40;1.30;;;;;;;;;;5058299;28;20627;-44
2023/02/22 12:35:41;;;;;;;1.88;1.30;;;;;;;;;;5064235;28;20181;-43
2023/02/22 12:38:29;;;;;;;2.35;1.40;;;;;;;;;;5071706;28;20184;-43
2023/02/22 12:40:58;;;;;;;2.13;1.60;;;;;;;;;;5055263;28;20175;-43
2023/02/22 12:43:34;;;;;;;1.33;1.20;;;;;;;;;;5066252;28;20600;-45
2023/02/22 12:46:09;;;;;;;1.50;1.40;;;;;;;;;;5056270;28;20419;-45
2023/02/22 12:48:35;;;;;;;1.70;1.40;;;;;;;;;;5058495;28;20186;-43
2023/02/22 12:51:20;;;;;;;1.52;1.25;;;;;;;;;;5055977;28;20268;-43
2023/02/22 12:53:52;;;;;;;1.40;1.30;;;;;;;;;;5048827;28;20618;-45
2023/02/22 12:56:25;;;;;;;1.20;1.10;;;;;;;;;;5044904;28;20267;-45
2023/02/22 12:58:57;;;;;;;1.10;1.10;;;;;;;;;;5047803;28;20184;-45
2023/02/22 13:01:25;;;;;;;1.45;1.30;;;;;;;;;;5047011;28;20250;-45
2023/02/22 13:03:54;;;;;;;1.23;1.13;;;;;;;;;;5050021;28;20378;-45
2023/02/22 13:06:20;;;;;;;1.45;1.33;;;;;;;;;;5052946;28;20237;-45
2023/02/22 13:09:02;;;;;;;1.17;1.10;;;;;;;;;;5039434;28;20674;-45
2023/02/22 13:11:35;;;;;;;1.50;1.38;;;;;;;;;;5052972;28;20532;-45
2023/02/22 13:14:19;;;;;;;1.60;1.20;;;;;;;;;;5049872;28;20206;-45
2023/02/22 13:16:59;;;;;;;1.55;1.20;;;;;;;;;;5046342;28;20194;-45
2023/02/22 13:19:28;;;;;;;0.93;0.90;;;;;;;;;;5047937;28;20183;-45
2023/02/22 13:21:57;;;;;;;1.20;1.10;;;;;;;;;;5049066;28;20182;-45
2023/02/22 13:24:26;;;;;;;1.40;1.30;;;;;;;;;;5058290;28;20573;-45
2023/02/22 13:27:17;;;;;;;1.20;1.10;;;;;;;;;;5062332;28;20209;-42
2023/02/22 13:29:54;;;;;;;1.20;1.10;;;;;;;;;;5052859;28;20200;-45
2023/02/22 13:32:35;;;;;;;1.35;1.20;;;;;;;;;;5069130;28;20191;-45
2023/02/22 13:35:08;;;;;;;1.23;1.02;;;;;;;;;;5050197;28;20201;-45
2023/02/22 13:37:59;;;;;;;1.42;1.33;;;;;;;;;;5054001;28;20510;-45
2023/02/22 13:40:50;;;;;;;1.77;1.25;;;;;;;;;;5049738;28;20186;-45
2023/02/22 13:43:28;;;;;;;1.08;0.98;;;;;;;;;;5055253;28;20187;-45
2023/02/22 13:46:00;;;;;;;1.60;1.10;;;;;;;;;;5057102;28;20189;-45
2023/02/22 13:48:41;;;;;;;1.35;1.20;;;;;;;;;;5051876;28;20231;-45
2023/02/22 13:51:17;;;;;;;1.00;1.00;;;;;;;;;;5041781;28;20189;-45
2023/02/22 13:53:54;;;;;;;0.95;0.90;;;;;;;;;;5047087;28;20200;-45
2023/02/22 13:56:22;;;;;;;1.33;1.00;;;;;;;;;;5067119;28;20243;-45
2023/02/22 13:59:08;;;;;;;1.50;1.40;;;;;;;;;;5061393;28;20178;-45
2023/02/22 14:01:42;;;;;;;1.70;1.30;;;;;;;;;;5045948;28;20188;-45
2023/02/22 14:04:26;;;;;;;1.10;1.00;;;;;;;;;;5044210;28;20191;-45
2023/02/22 14:06:53;;;;;;;1.10;1.00;;;;;;;;;;5070408;28;20297;-45
2023/02/22 14:09:37;;;;;;;1.40;1.30;;;;;;;;;;5054270;28;20207;-45
2023/02/22 14:12:03;;;;;;;2.50;1.20;;;;;;;;;;5044130;28;20269;-45
2023/02/22 14:14:29;;;;;;;2.75;1.13;;;;;;;;;;5057786;28;20304;-45
2023/02/22 14:17:14;;;;;;;2.47;1.17;;;;;;;;;;5065642;28;20192;-45
2023/02/22 14:19:39;;;;;;;2.15;1.20;;;;;;;;;;5050903;28;20186;-45
2023/02/22 14:22:07;;;;;;;1.30;1.17;;;;;;;;;;5064305;28;20179;-45
2023/02/22 14:24:59;;;;;;;1.17;1.10;;;;;;;;;;5042996;28;20179;-45
2023/02/22 14:27:38;;;;;;;3.05;1.20;;;;;;;;;;5041295;28;20222;-45
2023/02/22 14:30:04;;;;;;;3.05;1.13;;;;;;;;;;5067502;28;20236;-45
2023/02/22 14:32:31;;;;;;;1.50;1.40;;;;;;;;;;5063658;28;20210;-45
2023/02/22 14:34:59;;;;;;;1.70;1.30;;;;;;;;;;5049188;28;20180;-45
2023/02/22 14:37:30;;;;;;;3.58;1.40;;;;;;;;;;5056579;28;20229;-45
2023/02/22 14:40:28;;;;;;;2.25;1.00;;;;;;;;;;5058793;28;20195;-45
2023/02/22 14:43:14;;;;;;;2.00;1.20;;;;;;;;;;5042616;28;20282;-45
2023/02/22 14:45:54;;;;;;;1.08;1.05;;;;;;;;;;5054172;28;20605;-45
2023/02/22 14:48:38;;;;;;;2.38;1.10;;;;;;;;;;5045015;28;20191;-45
2023/02/22 14:51:05;;;;;;;2.80;0.98;;;;;;;;;;5045014;28;20201;-45
2023/02/22 14:53:40;;;;;;;1.75;0.95;;;;;;;;;;5043370;28;20357;-45
2023/02/22 14:56:10;;;;;;;1.02;0.93;;;;;;;;;;5045541;28;20505;-45
2023/02/22 14:58:41;;;;;;;2.45;1.00;;;;;;;;;;5041245;28;20546;-45
2023/02/22 15:01:29;;;;;;;0.95;0.88;;;;;;;;;;5044337;28;21479;-45